Time;durP1;ratioP1;P1;durP2;ratioP2;P2;SDS_P1;SDS_P2;PMS_P1;PMS_P2;Temp;Humidity;BMP_temperature;BMP_pressure;BME280_temperature;BME280_humidity;BME280_pressure;Samples;Min_cycle;Max_cycle;Signal;HPM_P1;HPM_P2
2021/08/11 00:02:21;;;;;;;12.90;10.60;;;;;;;24.92;100.00;101154.47;5052261;28;20476;-74
2021/08/11 00:04:47;;;;;;;14.33;10.70;;;;;;;24.81;100.00;101163.03;5051960;28;20200;-75
2021/08/11 00:07:12;;;;;;;12.90;11.70;;;;;;;24.73;100.00;101161.25;5052147;28;20628;-74
2021/08/11 00:09:38;;;;;;;14.67;11.03;;;;;;;24.65;100.00;101160.50;5052164;28;20196;-75
2021/08/11 00:12:04;;;;;;;19.60;12.00;;;;;;;24.68;100.00;101169.03;5051998;28;20199;-76
2021/08/11 00:14:30;;;;;;;14.00;10.93;;;;;;;24.62;100.00;101157.16;5052130;28;20193;-76
2021/08/11 00:16:55;;;;;;;15.30;11.53;;;;;;;24.62;100.00;101167.91;5051855;28;20434;-75
2021/08/11 00:19:21;;;;;;;16.07;11.67;;;;;;;24.58;100.00;101165.78;5051799;28;20221;-75
2021/08/11 00:21:46;;;;;;;20.23;12.43;;;;;;;24.53;100.00;101171.69;5051640;28;20172;-75
2021/08/11 00:24:12;;;;;;;17.37;11.47;;;;;;;24.46;100.00;101176.13;5051887;28;20176;-74
2021/08/11 00:26:38;;;;;;;23.27;12.00;;;;;;;24.40;100.00;101166.13;5050200;28;20710;-75
2021/08/11 00:29:03;;;;;;;15.67;12.53;;;;;;;24.42;100.00;101160.59;5051523;28;20545;-75
2021/08/11 00:31:30;;;;;;;15.07;12.30;;;;;;;24.38;100.00;101162.78;5043240;28;20549;-73
2021/08/11 00:33:56;;;;;;;16.73;12.73;;;;;;;24.33;100.00;101159.78;5046726;28;20655;-75
2021/08/11 00:36:22;;;;;;;24.57;16.83;;;;;;;24.33;100.00;101162.47;5052121;28;20419;-75
2021/08/11 00:38:48;;;;;;;19.70;14.90;;;;;;;24.32;100.00;101160.78;5052209;28;20414;-76
2021/08/11 00:41:17;;;;;;;20.70;15.50;;;;;;;24.27;100.00;101155.97;5050787;28;20200;-74
2021/08/11 00:43:42;;;;;;;25.13;17.20;;;;;;;24.25;100.00;101162.53;5051886;28;20210;-75
2021/08/11 00:46:09;;;;;;;25.73;18.60;;;;;;;24.26;100.00;101161.53;5052116;28;20843;-75
2021/08/11 00:48:36;;;;;;;24.27;18.60;;;;;;;24.28;100.00;101163.00;5051325;28;20315;-75
2021/08/11 00:51:02;;;;;;;25.73;17.73;;;;;;;24.26;100.00;101166.91;5049899;28;20427;-76
2021/08/11 00:53:31;;;;;;;24.50;16.95;;;;;;;24.19;100.00;101160.59;5051538;28;20435;-75
2021/08/11 00:55:58;;;;;;;24.40;17.30;;;;;;;24.23;100.00;101160.03;5051256;28;20918;-75
2021/08/11 00:58:25;;;;;;;24.80;17.90;;;;;;;24.25;100.00;101159.84;5051224;28;20447;-75
2021/08/11 01:00:53;;;;;;;23.60;17.43;;;;;;;24.28;100.00;101170.25;5051490;28;20411;-75
2021/08/11 01:03:21;;;;;;;26.63;20.17;;;;;;;24.24;100.00;101164.38;5051640;28;20407;-74
2021/08/11 01:05:47;;;;;;;26.47;18.50;;;;;;;24.23;100.00;101160.03;5052208;28;20415;-76
2021/08/11 01:08:14;;;;;;;27.30;19.57;;;;;;;24.15;100.00;101152.03;5051921;28;20415;-76
2021/08/11 01:10:44;;;;;;;28.10;21.93;;;;;;;24.17;100.00;101150.00;5051650;28;20423;-75
2021/08/11 01:13:11;;;;;;;28.03;21.80;;;;;;;24.22;100.00;101150.31;5051363;28;20412;-76
2021/08/11 01:15:37;;;;;;;29.00;23.13;;;;;;;24.21;100.00;101150.50;5050185;28;20462;-75
2021/08/11 01:18:03;;;;;;;33.20;23.33;;;;;;;24.18;100.00;101151.69;5051107;28;20415;-76
2021/08/11 01:20:32;;;;;;;27.63;20.80;;;;;;;24.14;100.00;101162.97;5050668;28;20217;-76
2021/08/11 01:23:03;;;;;;;26.67;19.50;;;;;;;24.13;100.00;101164.00;5050968;28;20942;-76
2021/08/11 01:25:43;;;;;;;24.67;19.00;;;;;;;24.11;100.00;101156.13;5050660;28;20911;-75
2021/08/11 01:28:45;;;;;;;25.47;17.83;;;;;;;24.15;100.00;101156.59;5050885;28;20494;-75
2021/08/11 01:31:17;;;;;;;23.17;17.23;;;;;;;24.17;100.00;101151.84;5050593;28;20549;-76
2021/08/11 01:33:55;;;;;;;26.43;18.70;;;;;;;24.18;100.00;101164.25;5050404;28;20785;-75
2021/08/11 01:36:44;;;;;;;20.50;17.13;;;;;;;24.20;100.00;101160.41;5050770;28;20414;-76
2021/08/11 01:39:22;;;;;;;26.70;17.17;;;;;;;24.27;100.00;101155.97;5050408;28;20470;-76
2021/08/11 01:41:58;;;;;;;18.70;16.70;;;;;;;24.26;100.00;101157.00;5050604;28;20424;-76
2021/08/11 01:44:29;;;;;;;25.50;17.87;;;;;;;24.37;100.00;101168.34;5050416;28;20415;-75
2021/08/11 01:46:55;;;;;;;25.80;16.03;;;;;;;24.44;100.00;101171.97;5050626;28;20782;-77
2021/08/11 01:49:23;;;;;;;19.20;14.80;;;;;;;24.37;100.00;101171.03;5050593;28;20983;-76
2021/08/11 01:51:49;;;;;;;19.37;14.80;;;;;;;24.29;100.00;101169.22;5050297;28;20404;-76
2021/08/11 01:54:15;;;;;;;18.23;14.17;;;;;;;24.29;100.00;101162.00;5050632;28;20473;-75
2021/08/11 01:56:43;;;;;;;18.00;13.63;;;;;;;24.33;100.00;101163.34;5050184;28;20915;-75
2021/08/11 01:59:09;;;;;;;18.97;12.80;;;;;;;24.38;100.00;101154.72;5050794;28;20415;-76
2021/08/11 02:01:37;;;;;;;18.30;13.37;;;;;;;24.44;100.00;101158.53;5054907;28;20933;-75
2021/08/11 02:04:02;;;;;;;12.03;9.80;;;;;;;24.51;100.00;101167.53;5045719;28;20432;-75
2021/08/11 02:06:28;;;;;;;11.07;8.40;;;;;;;24.62;100.00;101159.84;5050496;28;20771;-73
2021/08/11 02:08:56;;;;;;;9.10;6.37;;;;;;;24.78;100.00;101161.50;5055718;28;20168;-74
2021/08/11 02:11:22;;;;;;;12.67;7.93;;;;;;;24.84;100.00;101157.25;5054989;28;20481;-75
2021/08/11 02:13:48;;;;;;;15.80;6.60;;;;;;;24.89;100.00;101150.31;5054893;28;20442;-75
2021/08/11 02:16:14;;;;;;;11.03;7.37;;;;;;;24.86;100.00;101157.91;5054725;28;20435;-75
2021/08/11 02:18:39;;;;;;;10.27;6.67;;;;;;;24.81;100.00;101157.66;5054044;28;20434;-74
2021/08/11 02:21:05;;;;;;;8.00;6.07;;;;;;;24.87;100.00;101149.69;5053959;28;20173;-76
2021/08/11 02:23:30;;;;;;;9.43;5.67;;;;;;;24.86;100.00;101152.53;5053827;28;20168;-75
2021/08/11 02:26:17;;;;;;;8.33;5.77;;;;;;;24.91;100.00;101145.56;5053971;28;20260;-76
2021/08/11 02:28:50;;;;;;;10.10;6.33;;;;;;;24.96;100.00;101146.88;5053700;28;20181;-76
2021/08/11 02:31:41;;;;;;;8.53;5.33;;;;;;;24.98;100.00;101145.66;5053798;28;20415;-75
2021/08/11 02:34:39;;;;;;;7.93;5.80;;;;;;;25.00;100.00;101149.00;5049647;28;20547;-75
2021/08/11 02:37:18;;;;;;;12.10;6.13;;;;;;;25.12;100.00;101157.47;5053132;28;20434;-76
2021/08/11 02:40:06;;;;;;;8.57;5.70;;;;;;;25.09;100.00;101153.31;5053993;28;20442;-76
2021/08/11 02:42:38;;;;;;;6.37;4.90;;;;;;;25.06;100.00;101155.53;5053420;28;20514;-74
2021/08/11 02:45:07;;;;;;;10.17;5.70;;;;;;;25.01;100.00;101147.13;5053423;28;20411;-77
2021/08/11 02:47:37;;;;;;;7.03;5.07;;;;;;;25.01;100.00;101147.97;5053478;28;20412;-74
2021/08/11 02:50:05;;;;;;;7.60;5.80;;;;;;;24.92;100.00;101157.16;5053412;28;20404;-75
2021/08/11 02:52:31;;;;;;;6.90;5.60;;;;;;;24.86;100.00;101149.84;5053691;28;20412;-76
2021/08/11 02:54:58;;;;;;;7.47;5.33;;;;;;;24.86;100.00;101142.63;5053375;28;20865;-75
2021/08/11 02:57:24;;;;;;;7.73;5.57;;;;;;;24.99;100.00;101146.50;5053254;28;20403;-75
2021/08/11 02:59:51;;;;;;;8.33;6.30;;;;;;;24.97;100.00;101151.25;5053113;28;20494;-75
2021/08/11 03:02:17;;;;;;;13.93;6.20;;;;;;;25.00;100.00;101151.69;5053420;28;20442;-75
2021/08/11 03:04:42;;;;;;;11.50;5.80;;;;;;;24.99;100.00;101151.88;5053079;28;20432;-75
2021/08/11 03:07:09;;;;;;;7.07;4.90;;;;;;;24.98;100.00;101144.84;5053024;28;20176;-76
2021/08/11 03:09:35;;;;;;;7.83;5.10;;;;;;;24.89;100.00;101149.47;5053132;28;20629;-75
2021/08/11 03:12:01;;;;;;;10.27;5.80;;;;;;;24.92;100.00;101151.78;5053156;28;20942;-75
2021/08/11 03:14:28;;;;;;;7.10;5.10;;;;;;;25.02;100.00;101148.84;5053209;28;20457;-75
2021/08/11 03:16:53;;;;;;;8.20;4.83;;;;;;;25.05;100.00;101152.00;5052877;28;20407;-75
2021/08/11 03:19:19;;;;;;;9.20;5.37;;;;;;;25.07;100.00;101147.25;5052708;28;20463;-75
2021/08/11 03:21:44;;;;;;;7.20;5.77;;;;;;;25.05;100.00;101161.94;5052793;28;20173;-75
2021/08/11 03:24:10;;;;;;;6.10;5.20;;;;;;;25.13;100.00;101156.44;5052805;28;20173;-74
2021/08/11 03:26:35;;;;;;;8.20;5.50;;;;;;;25.24;100.00;101157.81;5052833;28;20668;-75
2021/08/11 03:29:01;;;;;;;7.93;5.20;;;;;;;25.26;100.00;101161.16;5052795;28;20319;-74
2021/08/11 03:31:30;;;;;;;8.43;5.57;;;;;;;25.25;100.00;101154.94;5052677;28;20180;-74
2021/08/11 03:33:57;;;;;;;7.70;5.27;;;;;;;25.28;100.00;101164.50;5052461;28;20185;-75
2021/08/11 03:36:22;;;;;;;8.67;5.60;;;;;;;25.40;100.00;101163.00;5052786;28;20408;-74
2021/08/11 03:38:48;;;;;;;8.50;4.87;;;;;;;25.39;100.00;101161.31;5052261;28;20442;-75
2021/08/11 03:41:14;;;;;;;6.83;5.33;;;;;;;25.42;100.00;101166.31;5052797;28;20231;-75
2021/08/11 03:43:39;;;;;;;9.20;5.73;;;;;;;25.50;100.00;101155.44;5052325;28;20495;-74
2021/08/11 03:46:05;;;;;;;7.40;4.87;;;;;;;25.42;100.00;101155.56;5052149;28;20169;-75
2021/08/11 03:48:30;;;;;;;9.23;4.90;;;;;;;25.34;100.00;101169.97;5051751;28;20188;-75
2021/08/11 03:50:56;;;;;;;9.30;6.37;;;;;;;25.38;100.00;101165.84;5052103;28;20169;-74
2021/08/11 03:53:21;;;;;;;9.80;4.83;;;;;;;25.41;100.00;101170.03;5052561;28;20241;-75
2021/08/11 03:55:47;;;;;;;7.17;4.67;;;;;;;25.54;100.00;101174.72;5052340;28;20201;-75
2021/08/11 03:58:12;;;;;;;13.67;5.50;;;;;;;25.68;100.00;101165.78;5050931;28;20234;-74
2021/08/11 04:00:38;;;;;;;25.17;6.07;;;;;;;25.79;100.00;101169.88;5052563;28;20182;-74
2021/08/11 04:03:04;;;;;;;12.43;5.20;;;;;;;25.81;100.00;101167.81;5052134;28;20188;-75
2021/08/11 04:05:29;;;;;;;13.93;5.37;;;;;;;25.79;100.00;101170.69;5052584;28;20181;-76
2021/08/11 04:07:55;;;;;;;13.77;6.93;;;;;;;25.82;100.00;101178.38;5052372;28;20173;-75
2021/08/11 04:10:20;;;;;;;9.73;5.23;;;;;;;26.03;100.00;101164.09;5051956;28;20273;-75
2021/08/11 04:12:46;;;;;;;8.23;4.90;;;;;;;26.13;100.00;101169.13;5051801;28;20178;-74
2021/08/11 04:15:11;;;;;;;6.97;4.00;;;;;;;26.30;100.00;101159.78;5051410;28;20250;-74
2021/08/11 04:17:37;;;;;;;11.20;5.00;;;;;;;26.43;100.00;101159.88;5051706;28;20601;-74
2021/08/11 04:20:04;;;;;;;12.73;5.10;;;;;;;26.51;100.00;101161.59;5051612;28;20221;-76
2021/08/11 04:22:30;;;;;;;10.40;5.37;;;;;;;26.57;100.00;101168.91;5051027;28;20176;-75
2021/08/11 04:24:58;;;;;;;9.93;6.90;;;;;;;26.54;100.00;101166.63;5053093;28;20408;-75
2021/08/11 04:27:23;;;;;;;7.50;4.50;;;;;;;26.46;100.00;101169.47;5038688;28;20182;-77
2021/08/11 04:29:49;;;;;;;13.03;5.40;;;;;;;26.48;100.00;101162.00;5051721;28;20462;-76
2021/08/11 04:32:14;;;;;;;8.17;4.63;;;;;;;26.46;100.00;101166.75;5051704;28;20201;-75
2021/08/11 04:34:40;;;;;;;7.43;5.10;;;;;;;26.55;100.00;101152.94;5051518;28;20200;-76
2021/08/11 04:37:08;;;;;;;10.50;5.43;;;;;;;26.55;100.00;101157.50;5051336;28;20176;-74
2021/08/11 04:39:33;;;;;;;7.70;5.60;;;;;;;26.71;100.00;101151.78;5051612;28;20212;-74
2021/08/11 04:42:00;;;;;;;9.80;5.40;;;;;;;26.93;100.00;101159.78;5051473;28;20438;-75
2021/08/11 04:44:25;;;;;;;13.80;5.83;;;;;;;26.90;100.00;101158.31;5051075;28;20407;-74
2021/08/11 04:46:50;;;;;;;24.27;6.97;;;;;;;26.86;100.00;101158.91;5051192;28;20219;-75
2021/08/11 04:49:16;;;;;;;10.60;5.43;;;;;;;26.87;100.00;101156.03;5050283;28;20165;-75
2021/08/11 04:51:41;;;;;;;10.37;6.10;;;;;;;26.85;100.00;101155.41;5050943;28;20213;-77
2021/08/11 04:54:07;;;;;;;8.70;5.17;;;;;;;27.05;100.00;101152.81;5050753;28;20637;-75
2021/08/11 04:56:32;;;;;;;5.83;3.80;;;;;;;27.07;100.00;101150.78;5051228;28;20200;-76
2021/08/11 04:58:58;;;;;;;8.97;5.40;;;;;;;26.99;100.00;101153.59;5050925;28;20558;-76
2021/08/11 05:01:23;;;;;;;9.50;5.67;;;;;;;26.93;100.00;101154.41;5050854;28;20180;-75
2021/08/11 05:03:49;;;;;;;9.10;5.70;;;;;;;26.91;100.00;101157.31;5051259;28;20485;-75
2021/08/11 05:06:14;;;;;;;6.40;3.93;;;;;;;26.97;100.00;101156.47;5050910;28;20177;-76
2021/08/11 05:08:40;;;;;;;5.50;4.10;;;;;;;27.00;100.00;101147.16;5050842;28;20177;-75
2021/08/11 05:11:06;;;;;;;8.53;3.77;;;;;;;26.99;100.00;101149.03;5050998;28;20184;-76
2021/08/11 05:13:33;;;;;;;5.40;4.10;;;;;;;27.01;100.00;101160.47;5050743;28;20225;-77
2021/08/11 05:15:58;;;;;;;6.17;4.10;;;;;;;27.10;100.00;101156.56;5050404;28;20604;-76
2021/08/11 05:18:24;;;;;;;5.50;4.17;;;;;;;27.21;100.00;101152.50;5050099;28;20909;-74
2021/08/11 05:20:51;;;;;;;6.87;3.80;;;;;;;27.14;100.00;101159.72;5050105;28;20269;-75
2021/08/11 05:23:17;;;;;;;13.07;5.50;;;;;;;27.13;100.00;101158.06;5050332;28;20169;-75
2021/08/11 05:25:42;;;;;;;10.53;7.23;;;;;;;27.24;100.00;101160.16;5050114;28;20419;-75
2021/08/11 05:28:09;;;;;;;13.27;6.70;;;;;;;27.17;100.00;101166.56;5050604;28;20228;-76
2021/08/11 05:30:35;;;;;;;11.70;7.10;;;;;;;27.06;100.00;101176.09;5050051;28;20173;-75
2021/08/11 05:33:01;;;;;;;11.57;6.70;;;;;;;27.00;100.00;101161.50;5049863;28;20495;-76
2021/08/11 05:35:26;;;;;;;10.17;6.70;;;;;;;26.96;100.00;101162.91;5049862;28;20461;-74
2021/08/11 05:37:52;;;;;;;8.20;6.57;;;;;;;27.05;100.00;101169.00;5050877;28;20200;-75
2021/08/11 05:40:18;;;;;;;9.37;6.13;;;;;;;27.18;100.00;101174.47;5050188;28;20703;-75
2021/08/11 05:42:45;;;;;;;14.10;6.70;;;;;;;27.19;100.00;101170.72;5050068;28;20246;-75
2021/08/11 05:45:11;;;;;;;17.53;7.07;;;;;;;27.21;100.00;101167.84;5050409;28;20458;-76
2021/08/11 05:47:37;;;;;;;10.70;6.53;;;;;;;27.19;100.00;101168.03;5050333;28;20487;-75
2021/08/11 05:50:06;;;;;;;13.03;6.33;;;;;;;27.26;100.00;101166.19;5050168;28;20403;-77
2021/08/11 05:52:32;;;;;;;8.80;5.87;;;;;;;27.34;100.00;101166.00;5049042;28;20620;-76
2021/08/11 05:55:02;;;;;;;6.40;5.30;;;;;;;27.41;100.00;101165.22;5049915;28;20462;-74
2021/08/11 05:57:29;;;;;;;16.37;6.73;;;;;;;27.51;100.00;101166.50;5050050;28;20176;-76
2021/08/11 05:59:56;;;;;;;9.63;5.93;;;;;;;27.52;100.00;101170.03;5050169;28;20744;-77
2021/08/11 06:02:22;;;;;;;11.50;6.20;;;;;;;27.53;100.00;101163.59;5050101;28;20454;-76
2021/08/11 06:04:47;;;;;;;11.00;6.67;;;;;;;27.58;100.00;101163.78;5049932;28;20418;-76
2021/08/11 06:07:14;;;;;;;11.70;5.90;;;;;;;27.65;100.00;101162.78;5050175;28;20411;-75
2021/08/11 06:09:40;;;;;;;9.17;6.13;;;;;;;27.73;100.00;101166.34;5049813;28;20173;-76
2021/08/11 06:12:06;;;;;;;11.70;6.20;;;;;;;27.77;100.00;101165.75;5050149;28;20395;-76
2021/08/11 06:14:32;;;;;;;10.00;4.73;;;;;;;27.89;100.00;101166.00;5050241;28;20447;-75
2021/08/11 06:16:58;;;;;;;6.17;4.47;;;;;;;27.90;100.00;101168.50;5049954;28;20165;-75
2021/08/11 06:19:23;;;;;;;6.87;4.50;;;;;;;27.96;100.00;101169.50;5050033;28;20684;-75
2021/08/11 06:21:48;;;;;;;7.90;3.80;;;;;;;28.07;100.00;101174.31;5050305;28;20501;-74
2021/08/11 06:24:14;;;;;;;8.93;4.37;;;;;;;28.07;100.00;101168.91;5050107;28;20223;-76
2021/08/11 06:26:40;;;;;;;10.20;4.53;;;;;;;28.22;100.00;101171.41;5050084;28;20663;-75
2021/08/11 06:29:06;;;;;;;9.63;4.07;;;;;;;28.34;100.00;101168.94;5049896;28;20220;-74
2021/08/11 06:31:31;;;;;;;5.47;3.20;;;;;;;28.43;100.00;101167.69;5050553;28;20933;-74
2021/08/11 06:33:57;;;;;;;5.83;4.00;;;;;;;28.58;100.00;101175.59;5049814;28;20741;-76
2021/08/11 06:36:23;;;;;;;10.73;3.67;;;;;;;28.64;100.00;101172.00;5049742;28;20165;-77
2021/08/11 06:38:51;;;;;;;9.60;4.40;;;;;;;28.79;100.00;101169.06;5049726;28;20232;-75
2021/08/11 06:41:17;;;;;;;11.30;4.37;;;;;;;28.96;100.00;101179.28;5041972;28;20248;-75
2021/08/11 06:43:46;;;;;;;7.37;4.03;;;;;;;29.07;100.00;101168.81;5043566;28;20415;-77
2021/08/11 06:46:13;;;;;;;4.90;3.43;;;;;;;29.16;100.00;101168.34;5051542;28;20199;-73
2021/08/11 06:48:39;;;;;;;6.67;3.80;;;;;;;29.43;100.00;101169.06;5051926;28;20407;-76
2021/08/11 06:51:05;;;;;;;6.13;3.40;;;;;;;29.71;100.00;101168.75;5053174;28;20793;-77
2021/08/11 06:53:31;;;;;;;6.33;4.50;;;;;;;29.91;100.00;101171.31;5052976;28;20951;-75
2021/08/11 06:55:57;;;;;;;14.53;4.67;;;;;;;29.94;100.00;101167.34;5053306;28;20458;-75
2021/08/11 06:58:23;;;;;;;8.90;5.43;;;;;;;29.98;100.00;101172.09;5053206;28;20472;-75
2021/08/11 07:00:48;;;;;;;7.53;4.03;;;;;;;30.06;100.00;101169.09;5053174;28;20197;-76
2021/08/11 07:03:13;;;;;;;7.53;4.23;;;;;;;30.20;100.00;101164.44;5053186;28;20222;-75
2021/08/11 07:05:39;;;;;;;6.40;4.00;;;;;;;30.20;100.00;101166.34;5052779;28;20656;-75
2021/08/11 07:08:07;;;;;;;6.00;3.80;;;;;;;30.20;100.00;101169.88;5053413;28;20169;-75
2021/08/11 07:10:33;;;;;;;7.50;3.60;;;;;;;30.45;100.00;101169.03;5053556;28;20242;-76
2021/08/11 07:12:58;;;;;;;7.30;5.53;;;;;;;30.63;100.00;101164.47;5052891;28;20769;-76
2021/08/11 07:15:24;;;;;;;6.57;3.30;;;;;;;30.56;100.00;101160.16;5052551;28;20251;-76
2021/08/11 07:17:56;;;;;;;7.70;3.87;;;;;;;30.70;100.00;101160.88;5053192;28;20169;-75
2021/08/11 07:20:27;;;;;;;5.37;3.50;;;;;;;30.82;100.00;101162.59;5052374;28;20220;-75
2021/08/11 07:22:55;;;;;;;7.77;3.43;;;;;;;30.87;100.00;101153.81;5052819;28;20473;-75
2021/08/11 07:25:20;;;;;;;8.40;4.53;;;;;;;30.72;100.00;101158.78;5052221;28;20430;-76
2021/08/11 07:27:46;;;;;;;5.50;3.77;;;;;;;30.56;100.00;101157.44;5052943;28;20797;-75
2021/08/11 07:30:12;;;;;;;6.53;3.80;;;;;;;30.46;96.21;101152.53;5052663;28;20639;-74
2021/08/11 07:32:38;;;;;;;6.10;3.63;;;;;;;30.48;96.64;101157.75;5052449;28;20165;-76
2021/08/11 07:35:04;;;;;;;7.57;3.80;;;;;;;30.45;90.24;101150.84;5052205;28;20466;-76
2021/08/11 07:37:30;;;;;;;6.60;4.37;;;;;;;30.42;88.76;101155.91;5052183;28;20177;-75
2021/08/11 07:39:57;;;;;;;7.40;5.37;;;;;;;30.61;87.75;101153.00;5052307;28;20435;-76
2021/08/11 07:42:24;;;;;;;9.60;3.90;;;;;;;30.68;80.89;101142.09;5050991;28;20200;-76
2021/08/11 07:44:50;;;;;;;9.50;5.53;;;;;;;30.75;84.47;101147.44;5052555;28;20416;-76
2021/08/11 07:47:16;;;;;;;7.13;4.20;;;;;;;30.92;85.51;101149.34;5052230;28;20418;-74
2021/08/11 07:49:41;;;;;;;6.87;3.50;;;;;;;30.86;87.89;101147.53;5052445;28;20648;-75
2021/08/11 07:52:07;;;;;;;5.93;3.60;;;;;;;31.03;84.73;101152.34;5052432;28;20181;-76
2021/08/11 07:54:32;;;;;;;8.53;5.60;;;;;;;31.08;84.83;101152.50;5051617;28;20211;-76
2021/08/11 07:56:58;;;;;;;6.37;3.63;;;;;;;31.14;81.75;101152.44;5050040;28;20173;-77
2021/08/11 07:59:23;;;;;;;12.87;4.07;;;;;;;31.13;83.82;101153.47;5051707;28;20239;-75
2021/08/11 08:01:49;;;;;;;7.30;3.80;;;;;;;31.37;85.71;101156.34;5051771;28;20221;-75
2021/08/11 08:04:14;;;;;;;7.13;4.20;;;;;;;31.51;89.89;101155.09;5051926;28;20180;-76
2021/08/11 08:06:40;;;;;;;7.33;3.53;;;;;;;31.54;96.36;101148.38;5051626;28;20176;-75
2021/08/11 08:09:05;;;;;;;6.73;4.10;;;;;;;31.51;95.33;101146.94;5051792;28;20226;-76
2021/08/11 08:11:30;;;;;;;5.70;3.40;;;;;;;31.52;94.61;101140.47;5051489;28;20222;-76
2021/08/11 08:13:56;;;;;;;16.37;5.80;;;;;;;31.65;95.67;101137.53;5051317;28;20161;-76
2021/08/11 08:16:22;;;;;;;7.87;4.00;;;;;;;31.72;95.21;101135.53;5051248;28;20219;-76
2021/08/11 08:18:47;;;;;;;7.70;4.40;;;;;;;31.78;96.34;101136.53;5051083;28;20209;-76
2021/08/11 08:21:13;;;;;;;6.13;5.30;;;;;;;31.86;100.00;101146.25;5051394;28;20207;-76
2021/08/11 08:23:39;;;;;;;7.53;4.63;;;;;;;31.91;100.00;101138.22;5051200;28;20165;-75
2021/08/11 08:26:05;;;;;;;10.90;5.73;;;;;;;31.95;100.00;101144.84;5051217;28;20173;-76
2021/08/11 08:28:30;;;;;;;9.43;5.17;;;;;;;31.90;100.00;101142.00;5050674;28;20465;-77
2021/08/11 08:30:56;;;;;;;6.00;4.60;;;;;;;31.72;100.00;101140.97;5050915;28;20156;-74
2021/08/11 08:33:21;;;;;;;9.80;5.37;;;;;;;31.78;100.00;101141.16;5050935;28;20173;-74
2021/08/11 08:35:47;;;;;;;10.40;6.53;;;;;;;31.55;100.00;101148.13;5050764;28;20207;-76
2021/08/11 08:38:13;;;;;;;5.97;4.63;;;;;;;31.39;100.00;101138.75;5050675;28;20256;-76
2021/08/11 08:40:39;;;;;;;7.97;5.20;;;;;;;31.40;100.00;101139.59;5051341;28;20181;-76
2021/08/11 08:43:06;;;;;;;5.90;4.20;;;;;;;31.24;100.00;101132.06;5050712;28;20536;-76
2021/08/11 08:45:33;;;;;;;10.20;4.73;;;;;;;31.14;100.00;101135.31;5050771;28;20466;-76
2021/08/11 08:48:02;;;;;;;8.80;4.70;;;;;;;31.05;100.00;101123.91;5050929;28;20412;-76
2021/08/11 08:50:28;;;;;;;7.43;5.47;;;;;;;31.15;100.00;101132.38;5051231;28;20415;-75
2021/08/11 08:52:55;;;;;;;6.47;4.90;;;;;;;31.09;100.00;101132.44;5045652;28;20436;-75
2021/08/11 08:55:20;;;;;;;7.00;5.27;;;;;;;31.15;100.00;101126.09;5042340;28;20204;-75
2021/08/11 08:57:46;;;;;;;7.90;4.83;;;;;;;31.40;100.00;101121.38;5050385;28;20475;-76
2021/08/11 09:00:12;;;;;;;6.23;4.50;;;;;;;31.46;100.00;101116.94;5050523;28;20189;-76
2021/08/11 09:02:41;;;;;;;8.70;4.13;;;;;;;31.40;100.00;101123.28;5050642;28;20534;-76
2021/08/11 09:05:13;;;;;;;6.00;4.50;;;;;;;31.42;100.00;101113.00;5050274;28;20422;-75
2021/08/11 09:07:47;;;;;;;6.73;4.20;;;;;;;31.28;100.00;101106.91;5049920;28;20477;-76
2021/08/11 09:10:24;;;;;;;6.60;4.60;;;;;;;31.17;100.00;101105.78;5050636;28;20411;-75
2021/08/11 09:12:54;;;;;;;9.83;5.90;;;;;;;31.16;100.00;101112.28;5050477;28;20464;-76
2021/08/11 09:15:38;;;;;;;7.77;4.60;;;;;;;30.94;100.00;101116.56;5032750;28;20512;-72
2021/08/11 09:18:21;;;;;;;8.17;4.20;;;;;;;30.89;100.00;101116.38;5050181;28;20430;-75
2021/08/11 09:20:49;;;;;;;5.90;4.30;;;;;;;31.00;100.00;101112.94;5049886;28;20463;-77
2021/08/11 09:23:31;;;;;;;11.93;4.87;;;;;;;30.92;100.00;101113.25;5048908;28;20419;-74
2021/08/11 09:26:02;;;;;;;8.37;4.60;;;;;;;30.92;100.00;101111.34;5050297;28;20871;-76
2021/08/11 09:28:33;;;;;;;6.80;4.90;;;;;;;31.06;100.00;101108.44;5048938;28;20419;-75
2021/08/11 09:30:59;;;;;;;6.93;4.03;;;;;;;31.18;100.00;101107.44;5049629;28;20487;-77
2021/08/11 09:33:26;;;;;;;6.63;4.20;;;;;;;31.37;100.00;101102.03;5049717;28;20503;-75
2021/08/11 09:35:53;;;;;;;6.80;5.47;;;;;;;31.52;100.00;101101.59;5049803;28;20479;-76
2021/08/11 09:38:21;;;;;;;6.30;4.87;;;;;;;31.71;100.00;101100.44;5050300;28;21209;-76
2021/08/11 09:40:48;;;;;;;5.93;4.23;;;;;;;31.73;100.00;101095.59;5049550;28;20775;-77
2021/08/11 09:43:30;;;;;;;7.80;4.70;;;;;;;31.73;100.00;101096.41;5050005;28;20412;-76
2021/08/11 09:45:57;;;;;;;10.70;3.90;;;;;;;31.71;100.00;101095.84;5050029;28;20403;-77
2021/08/11 09:48:25;;;;;;;7.37;5.03;;;;;;;32.05;100.00;101100.78;5050263;28;20868;-75
2021/08/11 09:50:59;;;;;;;5.97;4.40;;;;;;;32.35;100.00;101104.22;5049633;28;20396;-76
2021/08/11 09:53:27;;;;;;;6.30;4.70;;;;;;;32.39;100.00;101102.66;5049412;28;20430;-76
2021/08/11 09:56:09;;;;;;;12.40;4.97;;;;;;;32.38;100.00;101098.28;5049786;28;21011;-77
2021/08/11 09:58:39;;;;;;;8.10;5.37;;;;;;;32.52;100.00;101096.97;5050113;28;20438;-75
2021/08/11 10:01:06;;;;;;;14.57;5.77;;;;;;;32.53;100.00;101095.91;5049368;28;20408;-77
2021/08/11 10:03:33;;;;;;;11.73;4.70;;;;;;;32.37;100.00;101093.94;5049987;28;20432;-77
2021/08/11 10:05:59;;;;;;;8.93;4.50;;;;;;;32.33;100.00;101098.16;5050383;28;20473;-75
2021/08/11 10:08:30;;;;;;;9.20;4.63;;;;;;;32.45;100.00;101100.91;5049415;28;20783;-76
2021/08/11 10:10:56;;;;;;;5.53;4.10;;;;;;;32.27;100.00;101099.94;5049663;28;20407;-75
2021/08/11 10:13:23;;;;;;;11.03;6.20;;;;;;;32.38;100.00;101100.19;5049538;28;20490;-76
2021/08/11 10:15:50;;;;;;;7.87;5.27;;;;;;;32.67;100.00;101103.81;5048534;28;20220;-76
2021/08/11 10:18:24;;;;;;;6.80;4.77;;;;;;;32.65;100.00;101100.50;5049609;28;20423;-77
2021/08/11 10:20:58;;;;;;;8.70;4.27;;;;;;;32.54;100.00;101094.84;5051061;28;20856;-78
2021/08/11 10:23:24;;;;;;;9.33;4.83;;;;;;;32.54;100.00;101094.00;5053131;28;20403;-76
2021/08/11 10:25:50;;;;;;;13.53;4.77;;;;;;;32.48;100.00;101094.97;5053409;28;20411;-76
2021/08/11 10:28:25;;;;;;;13.73;4.60;;;;;;;32.63;100.00;101098.00;5053868;28;20633;-74
2021/08/11 10:30:52;;;;;;;11.20;5.57;;;;;;;32.44;100.00;101107.41;5053235;28;20911;-75
2021/08/11 10:33:19;;;;;;;7.00;4.20;;;;;;;32.47;100.00;101099.59;5053595;28;20488;-76
2021/08/11 10:35:46;;;;;;;7.43;4.37;;;;;;;32.62;100.00;101096.38;5053753;28;20450;-75
2021/08/11 10:38:14;;;;;;;5.70;3.70;;;;;;;32.88;100.00;101084.16;5052783;28;20574;-75
2021/08/11 10:40:41;;;;;;;8.90;4.60;;;;;;;32.96;100.00;101077.50;5053291;28;20774;-76
2021/08/11 10:43:12;;;;;;;6.00;4.00;;;;;;;32.90;100.00;101082.00;5052804;28;20486;-77
2021/08/11 10:45:39;;;;;;;14.03;4.30;;;;;;;32.89;100.00;101093.16;5052659;28;20756;-75
2021/08/11 10:48:15;;;;;;;7.33;4.30;;;;;;;33.03;100.00;101078.19;5053060;28;20416;-75
2021/08/11 10:50:43;;;;;;;7.67;6.80;;;;;;;33.14;100.00;101074.56;5053114;28;20411;-77
2021/08/11 10:53:09;;;;;;;8.13;4.20;;;;;;;32.78;100.00;101079.28;5053688;28;20959;-76
2021/08/11 10:55:47;;;;;;;8.13;4.90;;;;;;;32.42;100.00;101083.16;5052626;28;20549;-77
2021/08/11 10:58:37;;;;;;;9.60;4.50;;;;;;;32.36;100.00;101075.94;5051299;28;20498;-76
2021/08/11 11:01:03;;;;;;;11.77;5.53;;;;;;;32.48;100.00;101065.84;5041356;28;21009;-73
2021/08/11 11:03:51;;;;;;;5.30;3.80;;;;;;;32.56;100.00;101064.66;5052760;28;20501;-77
2021/08/11 11:06:18;;;;;;;7.60;4.87;;;;;;;32.62;100.00;101068.31;5053239;28;20517;-77
2021/08/11 11:08:44;;;;;;;9.10;4.10;;;;;;;32.49;100.00;101075.66;5053039;28;20411;-75
2021/08/11 11:11:28;;;;;;;6.80;5.73;;;;;;;32.63;100.00;101076.25;5053590;28;20458;-76
2021/08/11 11:13:54;;;;;;;7.90;4.30;;;;;;;32.77;100.00;101066.72;5038988;28;20789;-76
2021/08/11 11:16:21;;;;;;;8.17;4.80;;;;;;;33.06;100.00;101054.00;5052818;28;20419;-76
2021/08/11 11:19:09;;;;;;;6.83;5.00;;;;;;;33.34;100.00;101046.88;5052320;28;20558;-76